createdAt,value
2023-04-19T00:00:41.079Z,62.13
2023-04-19T00:03:51.785Z,62.07
2023-04-19T00:06:53.666Z,62.09
2023-04-19T00:09:55.400Z,62.12
2023-04-19T00:12:57.294Z,62.12
2023-04-19T00:15:59.068Z,62.09
2023-04-19T00:19:01.138Z,62.11
2023-04-19T00:22:03.030Z,62.01
2023-04-19T00:25:05.566Z,62.00
2023-04-19T00:28:07.335Z,62.01
2023-04-19T00:31:09.245Z,61.88
2023-04-19T00:34:12.556Z,61.91
2023-04-19T00:37:14.533Z,61.90
2023-04-19T00:40:16.301Z,62.04
2023-04-19T00:43:21.568Z,61.90
2023-04-19T00:46:23.968Z,61.81
2023-04-19T00:49:26.286Z,61.69
2023-04-19T00:52:28.422Z,61.74
2023-04-19T00:55:32.259Z,61.65
2023-04-19T00:58:34.009Z,61.63
2023-04-19T01:01:35.997Z,61.47
2023-04-19T01:04:37.936Z,61.53
2023-04-19T01:07:42.667Z,61.46
2023-04-19T01:10:44.670Z,61.45
2023-04-19T01:13:46.444Z,61.49
2023-04-19T01:16:48.402Z,61.46
2023-04-19T01:19:50.097Z,61.38
2023-04-19T01:22:51.772Z,61.43
2023-04-19T01:25:53.491Z,61.38
2023-04-19T01:28:56.727Z,61.29
2023-04-19T01:31:58.422Z,61.44
2023-04-19T01:35:01.830Z,61.36
2023-04-19T01:38:05.263Z,61.29
2023-04-19T01:41:07.403Z,61.29
2023-04-19T01:44:09.103Z,61.36
2023-04-19T01:47:12.159Z,61.49
2023-04-19T01:50:15.152Z,61.47
2023-04-19T01:53:17.202Z,61.32
2023-04-19T01:56:19.937Z,61.28
2023-04-19T01:59:21.616Z,61.20
2023-04-19T02:02:23.419Z,61.20
2023-04-19T02:05:25.361Z,61.30
2023-04-19T02:08:28.451Z,61.14
2023-04-19T02:11:30.247Z,61.37
2023-04-19T02:14:31.998Z,61.45
2023-04-19T02:17:33.869Z,61.40
2023-04-19T02:20:35.585Z,61.41
2023-04-19T02:23:38.672Z,61.50
2023-04-19T02:26:40.316Z,61.49
2023-04-19T02:29:41.987Z,61.51
2023-04-19T02:32:44.001Z,61.65
2023-04-19T02:35:46.818Z,61.52
2023-04-19T02:38:48.495Z,61.58
2023-04-19T02:41:50.512Z,61.61
2023-04-19T02:44:52.282Z,61.65
2023-04-19T02:47:54.039Z,61.74
2023-04-19T02:50:55.945Z,61.76
2023-04-19T02:53:57.896Z,61.94
2023-04-19T02:57:00.392Z,61.73
2023-04-19T03:00:04.419Z,61.77
2023-04-19T03:03:07.260Z,61.76
2023-04-19T03:06:09.244Z,61.80
2023-04-19T03:09:11.129Z,61.93
2023-04-19T03:12:12.846Z,61.70
2023-04-19T03:15:15.442Z,61.64
2023-04-19T03:18:17.383Z,61.65
2023-04-19T03:21:19.445Z,61.82
2023-04-19T03:24:28.650Z,61.75
2023-04-19T03:27:30.645Z,61.79
2023-04-19T03:30:34.957Z,61.79
2023-04-19T03:33:36.731Z,62.03
2023-04-19T03:36:41.022Z,61.99
2023-04-19T03:39:42.700Z,62.10
2023-04-19T03:42:48.174Z,62.21
2023-04-19T03:46:00.118Z,62.09
2023-04-19T03:49:02.361Z,62.04
2023-04-19T03:52:04.375Z,62.14
2023-04-19T03:55:06.723Z,62.17
2023-04-19T03:58:14.005Z,62.19
2023-04-19T04:01:30.162Z,62.29
2023-04-19T04:04:32.070Z,62.18
2023-04-19T04:07:35.122Z,62.18
2023-04-19T04:10:37.128Z,62.23
2023-04-19T04:13:39.137Z,62.29
2023-04-19T04:16:50.541Z,62.24
2023-04-19T04:19:52.523Z,62.32
2023-04-19T04:22:55.903Z,62.35
2023-04-19T04:26:00.198Z,62.55
2023-04-19T04:29:08.028Z,62.28
2023-04-19T04:32:10.765Z,62.44
2023-04-19T04:35:14.923Z,62.52
2023-04-19T04:38:24.659Z,62.68
2023-04-19T04:41:30.756Z,62.75
2023-04-19T04:44:33.578Z,62.63
2023-04-19T04:47:36.002Z,62.63
2023-04-19T04:50:40.120Z,62.51
2023-04-19T04:53:41.945Z,62.64
2023-04-19T04:56:44.363Z,62.70
2023-04-19T04:59:49.740Z,62.81
2023-04-19T05:02:52.854Z,62.73
2023-04-19T05:05:57.665Z,62.59
2023-04-19T05:08:59.382Z,62.85
2023-04-19T05:12:10.559Z,62.74
2023-04-19T05:15:12.394Z,62.78
2023-04-19T05:18:17.949Z,62.84
2023-04-19T05:21:20.274Z,62.87
2023-04-19T05:24:22.439Z,62.74
2023-04-19T05:27:25.355Z,62.37
2023-04-19T05:30:27.224Z,62.13
2023-04-19T05:33:29.154Z,62.17
2023-04-19T05:36:31.663Z,62.01
2023-04-19T05:39:33.458Z,61.92
2023-04-19T05:42:35.485Z,61.93
2023-04-19T05:45:37.762Z,61.81
2023-04-19T05:48:39.790Z,61.74
2023-04-19T05:52:05.088Z,61.43
2023-04-19T05:55:11.418Z,61.36
2023-04-19T05:58:16.629Z,61.49
2023-04-19T06:01:18.493Z,61.51
2023-04-19T06:04:20.623Z,61.56
2023-04-19T06:07:31.932Z,61.39
2023-04-19T06:10:52.735Z,61.48
2023-04-19T06:13:56.151Z,61.37
2023-04-19T06:16:57.892Z,61.49
2023-04-19T06:20:00.396Z,61.43
2023-04-19T06:23:02.193Z,61.40
2023-04-19T06:26:03.919Z,61.43
2023-04-19T06:29:05.810Z,61.30
2023-04-19T06:32:08.392Z,61.56
2023-04-19T06:35:10.797Z,61.46
2023-04-19T06:38:12.501Z,61.46
2023-04-19T06:41:14.224Z,61.53
2023-04-19T06:44:16.052Z,61.62
2023-04-19T06:47:17.815Z,61.69
2023-04-19T06:50:19.684Z,61.68
2023-04-19T06:53:26.802Z,61.73
2023-04-19T06:56:45.171Z,61.60
2023-04-19T06:59:47.076Z,61.39
2023-04-19T07:02:50.343Z,61.37
2023-04-19T07:05:52.242Z,61.64
2023-04-19T07:08:53.888Z,61.50
2023-04-19T07:11:56.680Z,61.41
2023-04-19T07:14:58.652Z,61.26
2023-04-19T07:18:00.471Z,61.06
2023-04-19T07:21:02.286Z,61.04
2023-04-19T07:24:11.319Z,61.00
2023-04-19T07:27:13.827Z,61.68
2023-04-19T07:30:15.572Z,63.08
2023-04-19T07:33:17.326Z,61.94
2023-04-19T07:36:19.052Z,61.41
2023-04-19T07:39:20.686Z,61.09
2023-04-19T07:42:22.365Z,60.85
2023-04-19T07:45:24.042Z,60.87
2023-04-19T07:48:25.849Z,60.70
2023-04-19T07:51:27.713Z,60.88
2023-04-19T07:54:29.782Z,60.98
2023-04-19T07:57:31.439Z,61.12
2023-04-19T08:00:36.048Z,60.92
2023-04-19T08:03:37.949Z,60.83
2023-04-19T08:06:40.024Z,60.64
2023-04-19T08:09:41.724Z,60.62
2023-04-19T08:12:53.582Z,60.69
2023-04-19T08:16:36.964Z,60.92
2023-04-19T08:19:27.581Z,60.90
2023-04-19T08:22:29.245Z,61.14
2023-04-19T08:25:31.290Z,61.11
2023-04-19T08:28:33.046Z,61.20
2023-04-19T08:31:34.741Z,61.33
2023-04-19T08:34:37.685Z,61.37
2023-04-19T08:37:39.462Z,61.55
2023-04-19T08:40:46.940Z,61.46
2023-04-19T08:43:51.323Z,61.39
2023-04-19T08:46:53.294Z,61.39
2023-04-19T08:50:08.722Z,61.43
2023-04-19T08:53:25.097Z,61.36
2023-04-19T08:56:35.414Z,61.52
2023-04-19T08:59:38.415Z,61.62
2023-04-19T09:02:51.295Z,61.73
2023-04-19T09:05:54.346Z,61.52
2023-04-19T09:12:22.448Z,61.47
2023-04-19T09:15:35.779Z,61.55
2023-04-19T09:19:02.614Z,61.63
2023-04-19T09:22:13.278Z,61.56
2023-04-19T09:25:43.791Z,61.88
2023-04-19T09:28:56.702Z,61.82
2023-04-19T09:31:59.265Z,61.75
2023-04-19T09:35:01.057Z,61.87
2023-04-19T09:38:06.941Z,62.02
2023-04-19T09:41:09.924Z,61.93
2023-04-19T09:47:29.333Z,61.96
2023-04-19T09:50:31.873Z,61.91
2023-04-19T09:53:33.991Z,61.87
2023-04-19T09:56:36.987Z,61.87
2023-04-19T09:59:38.741Z,61.82
2023-04-19T10:02:41.649Z,61.89
2023-04-19T10:05:45.113Z,61.93
2023-04-19T10:08:49.603Z,61.83
2023-04-19T10:11:56.584Z,61.91
2023-04-19T10:15:06.869Z,61.88
2023-04-19T10:18:09.406Z,61.96
2023-04-19T10:21:12.334Z,62.04
2023-04-19T10:24:17.816Z,61.95
2023-04-19T10:27:25.164Z,61.94
2023-04-19T10:30:27.325Z,62.06
2023-04-19T10:33:34.247Z,62.13
2023-04-19T10:36:37.511Z,62.10
2023-04-19T10:39:40.915Z,62.24
2023-04-19T10:43:10.686Z,62.39
2023-04-19T10:46:15.123Z,62.24
2023-04-19T10:49:31.344Z,62.20
2023-04-19T10:52:34.295Z,62.22
2023-04-19T10:55:50.612Z,62.26
2023-04-19T10:59:01.042Z,62.28
2023-04-19T11:02:24.200Z,62.49
2023-04-19T11:05:27.501Z,62.38
2023-04-19T11:08:29.218Z,62.34
2023-04-19T11:11:37.330Z,62.30
2023-04-19T11:14:44.334Z,62.20
2023-04-19T11:17:57.921Z,62.27
2023-04-19T11:21:06.713Z,62.44
2023-04-19T11:24:09.460Z,62.32
2023-04-19T11:27:11.096Z,62.40
2023-04-19T11:30:21.813Z,62.53
2023-04-19T11:33:29.568Z,62.51
2023-04-19T11:36:36.335Z,62.49
2023-04-19T11:39:55.795Z,62.52
2023-04-19T11:43:00.035Z,62.63
2023-04-19T11:46:06.560Z,62.54
2023-04-19T11:49:08.476Z,62.53
2023-04-19T11:52:10.239Z,62.58
2023-04-19T11:55:18.460Z,62.60
2023-04-19T11:58:32.448Z,62.60
2023-04-19T12:01:34.112Z,62.71
2023-04-19T12:04:36.674Z,62.58
2023-04-19T12:07:58.596Z,62.66
2023-04-19T12:11:00.686Z,62.52
2023-04-19T12:14:12.896Z,62.68
2023-04-19T12:17:15.239Z,62.80
2023-04-19T12:20:28.199Z,62.78
2023-04-19T12:23:31.427Z,62.70
2023-04-19T12:26:33.583Z,62.86
2023-04-19T12:29:35.774Z,62.84
2023-04-19T12:32:37.610Z,62.77
2023-04-19T12:35:40.448Z,62.77
2023-04-19T12:38:42.684Z,62.84
2023-04-19T12:41:44.238Z,62.68
2023-04-19T12:44:46.159Z,62.67
2023-04-19T12:47:48.496Z,62.71
2023-04-19T12:50:50.341Z,62.79
2023-04-19T12:53:52.031Z,62.80
2023-04-19T12:56:53.758Z,62.93
2023-04-19T12:59:55.737Z,62.88
2023-04-19T13:02:57.704Z,62.88
2023-04-19T13:05:59.573Z,62.87
2023-04-19T13:09:01.693Z,62.94
2023-04-19T13:12:05.067Z,62.82
2023-04-19T13:15:07.617Z,62.64
2023-04-19T13:18:09.385Z,62.63
2023-04-19T13:21:11.219Z,62.65
2023-04-19T13:24:12.919Z,62.72
2023-04-19T13:27:15.721Z,62.78
2023-04-19T13:30:17.420Z,62.84
2023-04-19T13:33:19.347Z,62.91
2023-04-19T13:36:21.175Z,63.09
2023-04-19T13:39:23.202Z,63.08
2023-04-19T13:42:25.138Z,63.13
2023-04-19T13:45:26.818Z,63.09
2023-04-19T13:48:28.494Z,63.17
2023-04-19T13:51:42.430Z,63.12
2023-04-19T13:54:49.094Z,63.15
2023-04-19T13:57:50.722Z,63.22
2023-04-19T14:00:53.415Z,63.31
2023-04-19T14:03:55.430Z,63.31
2023-04-19T14:06:57.259Z,63.39
2023-04-19T14:09:59.965Z,63.42
2023-04-19T14:13:02.588Z,63.51
2023-04-19T14:16:04.539Z,63.58
2023-04-19T14:19:06.507Z,63.71
2023-04-19T14:22:08.209Z,63.80
2023-04-19T14:25:12.035Z,63.90
2023-04-19T14:28:13.786Z,63.83
2023-04-19T14:31:15.597Z,63.91
2023-04-19T14:34:17.253Z,63.97
2023-04-19T14:37:19.061Z,63.95
2023-04-19T14:40:20.813Z,63.88
2023-04-19T14:43:22.564Z,63.86
2023-04-19T14:46:24.339Z,64.00
2023-04-19T14:49:26.191Z,64.06
2023-04-19T14:52:29.572Z,64.04
2023-04-19T14:55:31.291Z,64.21
2023-04-19T14:58:33.026Z,64.10
2023-04-19T15:01:34.729Z,64.31
2023-04-19T15:04:40.624Z,64.41
2023-04-19T15:07:43.034Z,64.40
2023-04-19T15:10:44.643Z,64.39
2023-04-19T15:13:46.275Z,64.43
2023-04-19T15:16:47.836Z,64.56
2023-04-19T15:19:49.400Z,64.60
2023-04-19T15:22:51.013Z,64.76
2023-04-19T15:25:52.615Z,64.77
2023-04-19T15:28:55.300Z,64.81
2023-04-19T15:31:57.297Z,64.82
2023-04-19T15:34:59.684Z,64.85
2023-04-19T15:38:01.400Z,64.84
2023-04-19T15:41:03.287Z,64.92
2023-04-19T15:44:07.897Z,64.92
2023-04-19T15:47:09.821Z,64.84
2023-04-19T15:50:11.709Z,64.92
2023-04-19T15:53:13.514Z,65.00
2023-04-19T15:56:16.742Z,65.21
2023-04-19T15:59:18.545Z,65.20
2023-04-19T16:02:30.821Z,65.17
2023-04-19T16:05:40.046Z,65.18
2023-04-19T16:08:42.724Z,65.22
2023-04-19T16:11:44.674Z,65.24
2023-04-19T16:14:46.335Z,65.28
2023-04-19T16:17:49.891Z,65.27
2023-04-19T16:20:53.579Z,65.31
2023-04-19T16:24:01.323Z,65.31
2023-04-19T16:27:03.741Z,65.42
2023-04-19T16:30:06.793Z,65.38
2023-04-19T16:33:09.446Z,65.36
2023-04-19T16:36:11.072Z,65.30
2023-04-19T16:39:13.188Z,65.41
2023-04-19T16:42:15.913Z,65.55
2023-04-19T16:45:17.960Z,65.51
2023-04-19T16:48:22.346Z,65.53
2023-04-19T16:51:24.109Z,65.57
2023-04-19T16:58:21.750Z,66.10
2023-04-19T17:01:23.654Z,65.89
2023-04-19T17:04:25.807Z,65.72
2023-04-19T17:07:27.556Z,65.71
2023-04-19T17:10:29.232Z,65.71
2023-04-19T17:13:30.881Z,65.71
2023-04-19T17:16:32.537Z,65.78
2023-04-19T17:19:34.489Z,65.68
2023-04-19T17:22:36.305Z,65.76
2023-04-19T17:25:37.928Z,65.93
2023-04-19T17:28:41.083Z,65.90
2023-04-19T17:31:42.865Z,65.90
2023-04-19T17:34:44.537Z,65.98
2023-04-19T17:37:46.215Z,66.07
2023-04-19T17:40:48.002Z,66.05
2023-04-19T17:43:49.618Z,66.00
2023-04-19T17:46:51.325Z,66.08
2023-04-19T17:49:53.024Z,66.13
2023-04-19T17:52:54.875Z,66.06
2023-04-19T17:55:56.573Z,66.08
2023-04-19T17:59:00.150Z,66.18
2023-04-19T18:02:02.098Z,66.28
2023-04-19T18:05:04.266Z,66.29
2023-04-19T18:08:06.252Z,66.31
2023-04-19T18:11:10.487Z,66.26
2023-04-19T18:14:12.128Z,66.33
2023-04-19T18:17:14.033Z,66.30
2023-04-19T18:20:15.989Z,66.23
2023-04-19T18:23:23.516Z,66.34
2023-04-19T18:26:25.255Z,66.41
2023-04-19T18:29:36.076Z,66.52
2023-04-19T18:32:37.784Z,66.48
2023-04-19T18:35:40.595Z,66.52
2023-04-19T18:38:42.383Z,66.50
2023-04-19T18:42:03.939Z,66.62
2023-04-19T18:45:06.827Z,66.58
2023-04-19T18:48:09.106Z,66.69
2023-04-19T18:51:11.652Z,66.79
2023-04-19T18:54:15.600Z,66.72
2023-04-19T18:57:23.481Z,66.81
2023-04-19T19:00:28.759Z,66.83
2023-04-19T19:06:37.880Z,66.78
2023-04-19T19:09:47.225Z,66.80
2023-04-19T19:12:56.567Z,66.86
2023-04-19T19:15:58.352Z,66.82
2023-04-19T19:19:00.309Z,66.84
2023-04-19T19:22:02.174Z,66.86
2023-04-19T19:25:05.287Z,66.89
2023-04-19T19:28:10.196Z,66.95
2023-04-19T19:31:12.115Z,66.89
2023-04-19T19:34:27.354Z,66.93
2023-04-19T19:37:30.597Z,67.00
2023-04-19T19:40:33.090Z,67.01
2023-04-19T19:43:35.042Z,67.00
2023-04-19T19:46:37.579Z,67.06
2023-04-19T19:52:44.177Z,67.17
2023-04-19T19:55:46.221Z,67.23
2023-04-19T19:58:51.424Z,67.63
2023-04-19T20:01:53.720Z,67.47
2023-04-19T20:04:55.667Z,67.34
2023-04-19T20:08:08.735Z,67.48
2023-04-19T20:11:11.581Z,67.40
2023-04-19T20:14:13.228Z,67.28
2023-04-19T20:17:15.181Z,67.26
2023-04-19T20:20:16.879Z,67.29
2023-04-19T20:23:19.954Z,67.29
2023-04-19T20:26:21.631Z,67.35
2023-04-19T20:29:23.368Z,67.35
2023-04-19T20:32:25.169Z,67.36
2023-04-19T20:35:27.441Z,67.36
2023-04-19T20:38:29.143Z,67.39
2023-04-19T20:41:30.740Z,67.47
2023-04-19T20:44:33.302Z,67.43
2023-04-19T20:47:36.740Z,67.55
2023-04-19T20:50:38.395Z,67.50
2023-04-19T20:53:40.313Z,67.44
2023-04-19T20:56:41.952Z,67.57
2023-04-19T20:59:44.431Z,67.55
2023-04-19T21:02:46.119Z,67.47
2023-04-19T21:05:47.820Z,67.47
2023-04-19T21:08:49.412Z,67.38
2023-04-19T21:11:51.042Z,67.36
2023-04-19T21:14:53.010Z,67.40
2023-04-19T21:17:54.669Z,67.44
2023-04-19T21:20:57.376Z,67.45
2023-04-19T21:23:59.449Z,67.45
2023-04-19T21:27:01.311Z,67.46
2023-04-19T21:30:04.969Z,67.44
2023-04-19T21:33:07.084Z,67.53
2023-04-19T21:36:09.011Z,67.51
2023-04-19T21:39:10.749Z,67.51
2023-04-19T21:42:12.475Z,67.54
2023-04-19T21:45:14.090Z,67.52
2023-04-19T21:48:15.836Z,67.58
2023-04-19T21:51:17.484Z,67.58
2023-04-19T21:54:32.728Z,67.63
2023-04-19T21:57:37.671Z,67.68
2023-04-19T22:00:39.318Z,67.68
2023-04-19T22:03:41.275Z,67.66
2023-04-19T22:06:46.092Z,67.75
2023-04-19T22:09:47.772Z,67.75
2023-04-19T22:12:57.712Z,67.76
2023-04-19T22:16:01.697Z,67.66
2023-04-19T22:19:03.350Z,67.66
2023-04-19T22:22:04.991Z,67.66
2023-04-19T22:25:07.025Z,67.71
2023-04-19T22:28:08.627Z,67.71
2023-04-19T22:31:10.364Z,67.80
2023-04-19T22:34:11.969Z,67.82
2023-04-19T22:37:13.662Z,67.84
2023-04-19T22:40:15.402Z,67.82
2023-04-19T22:43:17.065Z,67.86
2023-04-19T22:46:18.723Z,67.89
2023-04-19T22:49:21.834Z,67.96
2023-04-19T22:52:23.467Z,67.96
2023-04-19T22:55:25.209Z,68.02
2023-04-19T22:58:27.111Z,67.90
2023-04-19T23:01:28.776Z,67.93
2023-04-19T23:04:34.633Z,67.99
2023-04-19T23:07:36.460Z,67.99
2023-04-19T23:10:38.417Z,68.06
2023-04-19T23:13:40.757Z,68.07
2023-04-19T23:16:42.361Z,68.03
2023-04-19T23:19:44.113Z,68.03
2023-04-19T23:22:45.703Z,68.10
2023-04-19T23:25:47.323Z,68.13
2023-04-19T23:28:49.001Z,68.17
2023-04-19T23:31:50.851Z,68.15
2023-04-19T23:34:52.533Z,68.28
2023-04-19T23:37:54.168Z,68.20
2023-04-19T23:40:55.832Z,68.24
2023-04-19T23:43:57.487Z,68.32
2023-04-19T23:46:59.170Z,68.41
2023-04-19T23:50:00.865Z,68.42
2023-04-19T23:53:02.598Z,68.46
2023-04-19T23:56:04.481Z,68.44
2023-04-19T23:59:06.493Z,68.51
